Time;durP1;ratioP1;P1;durP2;ratioP2;P2;SDS_P1;SDS_P2;PMS_P1;PMS_P2;Temp;Humidity;BMP_temperature;BMP_pressure;BME280_temperature;BME280_humidity;BME280_pressure;Samples;Min_cycle;Max_cycle;Signal;HPM_P1;HPM_P2
2022/04/11 00:02:13;;;;;;;12.70;6.53;;;;;;;-145.69;100.00;73024.47;5070018;28;20202;-75
2022/04/11 00:04:41;;;;;;;12.17;7.57;;;;;;;-145.69;100.00;73026.44;5073993;28;20214;-75
2022/04/11 00:07:08;;;;;;;15.23;7.00;;;;;;;-145.69;100.00;73048.34;5073836;28;20593;-75
2022/04/11 00:09:34;;;;;;;15.20;6.80;;;;;;;-145.69;100.00;73064.28;5073581;28;20281;-75
2022/04/11 00:12:01;;;;;;;13.33;7.13;;;;;;;-145.69;100.00;73076.22;5073117;28;20361;-76
2022/04/11 00:14:27;;;;;;;14.90;7.60;;;;;;;-145.69;100.00;73066.25;5073305;28;20237;-76
2022/04/11 00:16:54;;;;;;;19.93;8.50;;;;;;;-145.69;100.00;73044.38;5073567;28;20207;-75
2022/04/11 00:19:21;;;;;;;14.83;7.97;;;;;;;-145.69;100.00;73040.38;5073173;28;20231;-75
2022/04/11 00:21:49;;;;;;;15.03;7.47;;;;;;;-145.69;100.00;73054.31;5072845;28;20352;-75
2022/04/11 00:24:15;;;;;;;16.53;7.47;;;;;;;-145.69;100.00;73056.31;5073140;28;20199;-75
2022/04/11 00:26:41;;;;;;;16.43;6.77;;;;;;;-145.69;100.00;73058.31;5073336;28;20195;-75
2022/04/11 00:29:08;;;;;;;14.60;7.00;;;;;;;-145.69;100.00;73060.28;5073117;28;20210;-75
2022/04/11 00:31:34;;;;;;;14.37;6.83;;;;;;;-145.69;100.00;73074.22;5072981;28;20206;-75
2022/04/11 00:34:01;;;;;;;19.53;7.27;;;;;;;-145.69;100.00;73078.22;5073055;28;20190;-75
2022/04/11 00:36:30;;;;;;;17.63;7.87;;;;;;;-145.69;100.00;73074.22;5073185;28;20199;-75
2022/04/11 00:38:58;;;;;;;19.30;7.80;;;;;;;-145.69;100.00;73074.22;5072614;28;20681;-75
2022/04/11 00:41:24;;;;;;;19.13;7.90;;;;;;;-145.69;100.00;73060.28;5073173;28;20203;-75
2022/04/11 00:43:50;;;;;;;17.17;8.03;;;;;;;-145.69;100.00;73058.31;5073054;28;20206;-75
2022/04/11 00:46:17;;;;;;;16.13;6.90;;;;;;;-145.69;100.00;73054.31;5072721;28;20649;-75
2022/04/11 00:48:43;;;;;;;14.57;7.33;;;;;;;-145.69;100.00;73052.34;5071640;28;20191;-75
2022/04/11 00:51:12;;;;;;;13.63;7.03;;;;;;;-145.69;100.00;73042.38;5072935;28;20198;-74
2022/04/11 00:53:42;;;;;;;18.90;7.63;;;;;;;-145.69;100.00;73036.41;5072852;28;20203;-75
2022/04/11 00:56:12;;;;;;;11.33;6.50;;;;;;;-145.69;100.00;73038.41;5073050;28;20203;-75
2022/04/11 00:58:42;;;;;;;22.77;7.17;;;;;;;-145.69;100.00;73042.38;5072862;28;20241;-75
2022/04/11 01:01:11;;;;;;;12.33;6.17;;;;;;;-145.69;100.00;73042.38;5072775;28;20237;-75
2022/04/11 01:03:38;;;;;;;11.67;6.43;;;;;;;-145.69;100.00;73046.34;5072762;28;20210;-75
2022/04/11 01:06:06;;;;;;;13.43;6.67;;;;;;;-145.69;100.00;73034.41;5072656;28;20202;-75
2022/04/11 01:08:33;;;;;;;12.20;6.07;;;;;;;-145.69;100.00;73044.38;5072716;28;20207;-75
2022/04/11 01:11:00;;;;;;;13.37;6.27;;;;;;;-145.69;100.00;73028.44;5072293;28;20662;-74
2022/04/11 01:13:29;;;;;;;11.73;6.20;;;;;;;-145.69;100.00;73004.56;5072728;28;20199;-74
2022/04/11 01:15:57;;;;;;;15.53;5.87;;;;;;;-145.69;100.00;72990.63;5072415;28;20234;-74
2022/04/11 01:18:23;;;;;;;12.40;5.70;;;;;;;-145.69;100.00;72998.59;5072678;28;20223;-74
2022/04/11 01:20:50;;;;;;;12.97;5.80;;;;;;;-145.69;100.00;72978.69;5072486;28;20237;-74
2022/04/11 01:23:18;;;;;;;11.77;6.17;;;;;;;-145.69;100.00;72980.66;5072577;28;20201;-74
2022/04/11 01:25:49;;;;;;;9.23;5.77;;;;;;;-145.69;100.00;72990.63;5072441;28;20195;-74
2022/04/11 01:28:16;;;;;;;12.30;5.97;;;;;;;-145.69;100.00;72994.59;5072469;28;20538;-74
2022/04/11 01:30:44;;;;;;;12.67;5.50;;;;;;;-145.69;100.00;72974.69;5072215;28;20206;-74
2022/04/11 01:33:21;;;;;;;11.00;5.47;;;;;;;-145.69;100.00;72970.72;5072079;28;20669;-74
2022/04/11 01:35:47;;;;;;;11.10;6.00;;;;;;;-145.69;100.00;72962.75;5072333;28;20285;-74
2022/04/11 01:38:14;;;;;;;9.23;5.20;;;;;;;-145.69;100.00;72962.75;5072419;28;20226;-74
2022/04/11 01:40:49;;;;;;;12.07;5.27;;;;;;;-145.69;100.00;72962.75;5072239;28;20191;-75
2022/04/11 01:43:16;;;;;;;12.87;5.77;;;;;;;-145.69;100.00;72954.78;5072322;28;20298;-74
2022/04/11 01:45:44;;;;;;;9.63;5.63;;;;;;;-145.69;100.00;72936.88;5072297;28;20392;-75
2022/04/11 01:48:11;;;;;;;14.07;5.03;;;;;;;-145.69;100.00;72936.88;5072638;28;20209;-75
2022/04/11 01:50:40;;;;;;;10.83;4.80;;;;;;;-145.69;100.00;72926.91;5071639;28;20206;-74
2022/04/11 01:53:08;;;;;;;12.67;5.10;;;;;;;-145.69;100.00;72913.00;5072341;28;20213;-75
2022/04/11 01:55:38;;;;;;;11.30;4.50;;;;;;;-145.69;100.00;72899.06;5072249;28;20199;-75
2022/04/11 01:58:07;;;;;;;11.93;5.27;;;;;;;-145.69;100.00;72911.00;5071901;28;20219;-74
2022/04/11 02:00:35;;;;;;;10.53;5.13;;;;;;;-145.69;100.00;72914.97;5074771;28;20205;-75
2022/04/11 02:03:02;;;;;;;7.77;4.80;;;;;;;-145.69;100.00;72914.97;5075977;28;20209;-75
2022/04/11 02:05:29;;;;;;;12.90;5.03;;;;;;;-145.69;100.00;72930.91;5075851;28;20264;-75
2022/04/11 02:07:56;;;;;;;8.10;4.50;;;;;;;-145.69;100.00;72922.94;5072884;28;20593;-75
2022/04/11 02:10:23;;;;;;;13.77;4.93;;;;;;;-145.69;100.00;72922.94;5056253;28;20207;-74
2022/04/11 02:12:50;;;;;;;10.77;4.80;;;;;;;-145.69;100.00;72918.97;5062062;28;20191;-75
2022/04/11 02:15:20;;;;;;;7.73;4.50;;;;;;;-145.69;100.00;72907.00;5075461;28;20235;-74
2022/04/11 02:17:47;;;;;;;10.20;4.87;;;;;;;-145.69;100.00;72905.03;5075561;28;20213;-74
2022/04/11 02:20:14;;;;;;;12.03;4.67;;;;;;;-145.69;100.00;72901.03;5075500;28;20318;-75
2022/04/11 02:22:48;;;;;;;10.13;4.93;;;;;;;-145.69;100.00;72893.09;5075796;28;20653;-75
2022/04/11 02:25:15;;;;;;;11.17;4.70;;;;;;;-145.69;100.00;72885.13;5075578;28;20654;-75
2022/04/11 02:27:41;;;;;;;10.57;4.60;;;;;;;-145.69;100.00;72869.19;5075136;28;20654;-75
2022/04/11 02:30:10;;;;;;;7.53;4.37;;;;;;;-145.69;100.00;72863.22;5075444;28;20202;-75
2022/04/11 02:32:40;;;;;;;9.03;4.60;;;;;;;-145.69;100.00;72855.25;5075102;28;20202;-74
2022/04/11 02:35:07;;;;;;;7.30;4.60;;;;;;;-145.69;100.00;72851.28;5075228;28;20198;-75
2022/04/11 02:37:35;;;;;;;8.57;4.47;;;;;;;-145.69;100.00;72859.25;5075107;28;20608;-75
2022/04/11 02:40:02;;;;;;;7.77;4.67;;;;;;;-145.69;100.00;72857.25;5075017;28;20237;-75
2022/04/11 02:42:29;;;;;;;8.63;4.00;;;;;;;-145.69;100.00;72847.28;5075352;28;20207;-74
2022/04/11 02:44:56;;;;;;;9.63;4.47;;;;;;;-145.69;100.00;72839.34;5075148;28;20218;-75
2022/04/11 02:47:23;;;;;;;7.90;4.10;;;;;;;-145.69;100.00;72827.38;5075133;28;20202;-75
2022/04/11 02:49:52;;;;;;;8.33;3.83;;;;;;;-145.69;100.00;72821.41;5075134;28;20202;-75
2022/04/11 02:52:19;;;;;;;7.97;4.47;;;;;;;-145.69;100.00;72807.47;5074716;28;20673;-75
2022/04/11 02:54:45;;;;;;;9.70;4.53;;;;;;;-145.69;100.00;72797.53;5074912;28;20206;-75
2022/04/11 02:57:12;;;;;;;8.68;4.75;;;;;;;-145.69;100.00;72795.53;5074575;28;20441;-75
2022/04/11 02:59:38;;;;;;;7.77;4.33;;;;;;;-145.69;100.00;72791.56;5074457;28;20701;-75
2022/04/11 03:02:07;;;;;;;7.73;4.33;;;;;;;-145.69;100.00;72779.63;5074885;28;20203;-75
2022/04/11 03:04:34;;;;;;;6.30;4.37;;;;;;;-145.69;100.00;72763.69;5074630;28;20558;-75
2022/04/11 03:07:03;;;;;;;9.07;4.30;;;;;;;-145.69;100.00;72763.69;5074656;28;20214;-75
2022/04/11 03:09:29;;;;;;;10.20;4.73;;;;;;;-145.69;100.00;72741.78;5074657;28;20209;-75
2022/04/11 03:11:56;;;;;;;10.00;4.27;;;;;;;-145.69;100.00;72759.72;5073909;28;20198;-75
2022/04/11 03:14:23;;;;;;;8.27;3.70;;;;;;;-145.69;100.00;72765.69;5073697;28;20230;-74
2022/04/11 03:16:50;;;;;;;8.07;3.83;;;;;;;-145.69;100.00;72767.69;5074479;28;20234;-74
2022/04/11 03:19:16;;;;;;;8.90;3.87;;;;;;;-145.69;100.00;72785.59;5074302;28;20589;-74
2022/04/11 03:21:45;;;;;;;10.60;3.93;;;;;;;-145.69;100.00;72783.59;5074175;28;20205;-74
2022/04/11 03:24:13;;;;;;;6.43;3.70;;;;;;;-145.69;100.00;72787.56;5074632;28;20546;-74
2022/04/11 03:26:40;;;;;;;6.60;3.80;;;;;;;-145.69;100.00;72777.63;5074355;28;20202;-75
2022/04/11 03:29:09;;;;;;;10.88;4.82;;;;;;;-145.69;100.00;72779.63;5073006;28;20809;-75
2022/04/11 03:31:38;;;;;;;11.23;4.53;;;;;;;-145.69;100.00;72783.59;5073752;28;20211;-75
2022/04/11 03:34:04;;;;;;;8.07;4.70;;;;;;;-145.69;100.00;72783.59;5074086;28;20198;-75
2022/04/11 03:36:33;;;;;;;8.25;4.30;;;;;;;-145.69;100.00;72779.63;5073970;28;20355;-75
2022/04/11 03:38:59;;;;;;;6.63;3.57;;;;;;;-145.69;100.00;72763.69;5073935;28;20233;-74
2022/04/11 03:41:27;;;;;;;8.77;3.87;;;;;;;-145.69;100.00;72779.63;5074066;28;20203;-75
2022/04/11 03:43:53;;;;;;;12.33;4.43;;;;;;;-145.69;100.00;72779.63;5073997;28;20198;-75
2022/04/11 03:46:20;;;;;;;7.37;4.00;;;;;;;-145.69;100.00;72777.63;5073577;28;20290;-75
2022/04/11 03:48:46;;;;;;;7.93;3.63;;;;;;;-145.69;100.00;72783.59;5073296;28;20589;-75
2022/04/11 03:51:13;;;;;;;4.80;3.60;;;;;;;-145.69;100.00;72775.63;5073775;28;20199;-75
2022/04/11 03:53:39;;;;;;;6.70;3.80;;;;;;;-145.69;100.00;72767.69;5073812;28;20198;-75
2022/04/11 03:56:06;;;;;;;8.70;4.07;;;;;;;-145.69;100.00;72779.63;5073546;28;20210;-75
2022/04/11 03:58:34;;;;;;;5.73;3.23;;;;;;;-145.69;100.00;72779.63;5073603;28;20277;-75
2022/04/11 04:01:00;;;;;;;7.43;3.83;;;;;;;-145.69;98.77;72767.69;5073430;28;20571;-74
2022/04/11 04:03:28;;;;;;;6.30;3.33;;;;;;;-145.69;100.00;72771.66;5072628;28;20530;-75
2022/04/11 04:05:55;;;;;;;6.93;3.37;;;;;;;-145.69;98.49;72763.69;5073492;28;20194;-74
2022/04/11 04:08:21;;;;;;;6.77;3.60;;;;;;;-145.69;99.47;72765.69;5073386;28;20187;-74
2022/04/11 04:10:48;;;;;;;6.07;3.30;;;;;;;-145.69;98.38;72767.69;5066834;28;20536;-75
2022/04/11 04:13:14;;;;;;;8.63;3.30;;;;;;;-145.69;98.04;72771.66;5053561;28;20245;-74
2022/04/11 04:15:43;;;;;;;8.57;3.70;;;;;;;-145.69;98.15;72775.63;5052502;28;20870;-75
2022/04/11 04:18:10;;;;;;;5.17;3.20;;;;;;;-145.69;97.67;72787.56;5053511;28;20650;-75
2022/04/11 04:20:38;;;;;;;9.23;3.03;;;;;;;-145.69;98.46;72797.53;5053543;28;20250;-75
2022/04/11 04:23:05;;;;;;;6.47;3.00;;;;;;;-145.69;98.02;72811.47;5072923;28;20658;-74
2022/04/11 04:25:33;;;;;;;6.47;2.93;;;;;;;-145.69;97.15;72799.53;5073239;28;20194;-74
2022/04/11 04:28:00;;;;;;;11.77;2.73;;;;;;;-145.69;97.92;72819.44;5073161;28;20230;-74
2022/04/11 04:30:28;;;;;;;5.43;2.47;;;;;;;-145.69;97.93;72823.41;5072878;28;20203;-75
2022/04/11 04:32:56;;;;;;;7.83;2.83;;;;;;;-145.69;98.00;72837.34;5073150;28;20248;-74
2022/04/11 04:35:23;;;;;;;5.53;2.80;;;;;;;-145.69;98.22;72847.28;5073237;28;20593;-74
2022/04/11 04:37:49;;;;;;;5.83;2.87;;;;;;;-145.69;98.77;72849.28;5072606;28;20194;-75
2022/04/11 04:40:16;;;;;;;3.73;2.43;;;;;;;-145.69;97.67;72859.25;5072821;28;20256;-74
2022/04/11 04:42:42;;;;;;;3.77;2.30;;;;;;;-145.69;97.60;72855.25;5072753;28;20247;-74
2022/04/11 04:45:09;;;;;;;5.40;2.50;;;;;;;-145.69;96.84;72861.22;5072894;28;20202;-74
2022/04/11 04:47:37;;;;;;;4.57;2.50;;;;;;;-145.69;98.16;72859.25;5072619;28;20272;-74
2022/04/11 04:50:08;;;;;;;7.47;2.70;;;;;;;-145.69;96.11;72857.25;5072935;28;20222;-74
2022/04/11 04:52:34;;;;;;;5.55;2.78;;;;;;;-145.69;98.09;72875.16;5071804;28;20442;-74
2022/04/11 04:55:01;;;;;;;3.67;2.37;;;;;;;-145.69;99.82;72895.06;5072781;28;20206;-74
2022/04/11 04:57:27;;;;;;;8.73;2.47;;;;;;;-145.69;100.00;72903.03;5072562;28;20195;-74
2022/04/11 04:59:55;;;;;;;5.87;2.43;;;;;;;-145.69;98.20;72885.13;5072840;28;20230;-75
2022/04/11 05:02:24;;;;;;;3.77;2.30;;;;;;;-145.69;97.37;72871.19;5072763;28;20562;-74
2022/04/11 05:04:51;;;;;;;6.63;2.53;;;;;;;-145.69;96.84;72863.22;5072648;28;20202;-74
2022/04/11 05:07:18;;;;;;;5.60;2.50;;;;;;;-145.69;97.79;72867.19;5072608;28;20198;-74
2022/04/11 05:09:45;;;;;;;6.07;2.47;;;;;;;-145.69;98.55;72871.19;5072693;28;20206;-75
2022/04/11 05:12:11;;;;;;;4.60;2.13;;;;;;;-145.69;97.78;72871.19;5072539;28;20807;-74
2022/04/11 05:14:38;;;;;;;7.33;2.20;;;;;;;-145.69;98.38;72853.28;5072507;28;20287;-74
2022/04/11 05:17:05;;;;;;;5.17;2.07;;;;;;;-145.69;96.31;72853.28;5072662;28;20207;-74
2022/04/11 05:19:31;;;;;;;5.80;2.10;;;;;;;-145.69;96.23;72847.28;5072508;28;20222;-74
2022/04/11 05:21:58;;;;;;;4.10;2.07;;;;;;;-145.69;95.53;72847.28;5072512;28;20199;-74
2022/04/11 05:24:27;;;;;;;3.80;1.87;;;;;;;-145.69;94.58;72823.41;5072292;28;20202;-74
2022/04/11 05:26:54;;;;;;;4.03;1.90;;;;;;;-145.69;92.48;72803.50;5072512;28;20728;-74
2022/04/11 05:29:25;;;;;;;7.00;2.15;;;;;;;-145.69;90.91;72783.59;5071766;28;20434;-74
2022/04/11 05:31:52;;;;;;;4.37;2.00;;;;;;;-145.69;90.11;72763.69;5072664;28;20207;-74
2022/04/11 05:34:19;;;;;;;3.83;2.07;;;;;;;-145.69;89.08;72761.69;5073115;28;20202;-74
2022/04/11 05:36:49;;;;;;;4.17;1.87;;;;;;;-145.69;90.86;72753.75;5075869;28;20217;-74
2022/04/11 05:39:15;;;;;;;6.63;2.17;;;;;;;-145.69;87.38;72725.88;5076048;28;20254;-74
2022/04/11 05:41:43;;;;;;;2.90;1.80;;;;;;;-145.69;83.48;72694.03;5076075;28;20711;-74
2022/04/11 05:44:10;;;;;;;3.93;1.70;;;;;;;-145.69;83.21;72680.09;5076586;28;20202;-74
2022/04/11 05:46:36;;;;;;;6.27;1.90;;;;;;;-145.69;84.17;72668.16;5075944;28;20209;-74
2022/04/11 05:49:02;;;;;;;2.87;1.83;;;;;;;-145.69;83.47;72660.19;5076400;28;20198;-75
2022/04/11 05:51:29;;;;;;;3.23;1.60;;;;;;;-145.69;81.58;72648.25;5075917;28;20198;-75
2022/04/11 05:53:58;;;;;;;3.50;1.77;;;;;;;-145.69;83.90;72644.25;5076452;28;20542;-75
2022/04/11 05:56:24;;;;;;;3.63;1.73;;;;;;;-145.69;82.40;72640.28;5076089;28;20193;-75
2022/04/11 05:58:53;;;;;;;4.87;1.70;;;;;;;-145.69;82.53;72624.34;5076208;28;20252;-75
2022/04/11 06:01:19;;;;;;;6.07;2.10;;;;;;;-145.69;80.03;72602.47;5072296;28;20223;-75
2022/04/11 06:03:46;;;;;;;3.83;1.83;;;;;;;-145.69;81.21;72606.44;5055879;28;20199;-74
2022/04/11 06:06:15;;;;;;;4.83;2.13;;;;;;;-145.69;81.01;72596.50;5055670;28;20222;-74
2022/04/11 06:08:44;;;;;;;2.50;1.60;;;;;;;-145.69;79.60;72582.56;5056301;28;20211;-75
2022/04/11 06:11:10;;;;;;;3.17;1.70;;;;;;;-145.69;79.02;72582.56;5055637;28;20654;-75
2022/04/11 06:13:38;;;;;;;4.57;1.73;;;;;;;-145.69;78.66;72576.59;5055840;28;20249;-75
2022/04/11 06:16:06;;;;;;;3.47;1.70;;;;;;;-145.69;79.56;72572.59;5056914;28;20318;-74
2022/04/11 06:18:35;;;;;;;2.10;1.50;;;;;;;-145.69;78.73;72560.66;5075544;28;20203;-75
2022/04/11 06:21:01;;;;;;;3.50;1.50;;;;;;;-145.69;77.71;72536.78;5075717;28;20317;-75
2022/04/11 06:23:29;;;;;;;8.23;1.80;;;;;;;-145.69;76.56;72518.88;5075442;28;20206;-75
2022/04/11 06:25:56;;;;;;;5.27;1.73;;;;;;;-145.69;75.95;72502.94;5075502;28;20198;-75
2022/04/11 06:28:22;;;;;;;4.03;1.57;;;;;;;-145.69;76.66;72496.97;5075653;28;20199;-74
2022/04/11 06:30:50;;;;;;;4.67;1.80;;;;;;;-145.69;75.25;72477.06;5074744;28;20803;-75
2022/04/11 06:33:18;;;;;;;5.93;1.60;;;;;;;-145.69;74.96;72471.09;5075239;28;20293;-75
2022/04/11 06:35:45;;;;;;;2.77;1.60;;;;;;;-145.69;73.19;72445.22;5074774;28;20607;-74
2022/04/11 06:38:11;;;;;;;3.47;1.43;;;;;;;-145.69;74.51;72429.28;5075140;28;20245;-75
2022/04/11 06:40:38;;;;;;;1.77;1.60;;;;;;;-145.69;71.37;72415.38;5075136;28;20226;-75
2022/04/11 06:43:04;;;;;;;4.70;1.63;;;;;;;-145.69;72.39;72401.44;5075198;28;20195;-75
2022/04/11 06:45:33;;;;;;;2.70;1.63;;;;;;;-145.69;70.23;72379.53;5075142;28;20561;-75
2022/04/11 06:47:59;;;;;;;3.53;2.23;;;;;;;-145.69;69.37;72369.59;5074915;28;20256;-75
2022/04/11 06:50:27;;;;;;;2.77;1.73;;;;;;;-145.69;68.17;72349.69;5075204;28;20253;-75
2022/04/11 06:52:54;;;;;;;3.57;1.40;;;;;;;-145.69;67.48;72331.78;5074754;28;20199;-75
2022/04/11 06:55:24;;;;;;;2.13;1.57;;;;;;;-145.69;67.65;72301.91;5075038;28;20202;-75
2022/04/11 06:57:54;;;;;;;2.63;1.47;;;;;;;-145.69;66.14;72289.97;5075048;28;20562;-75
2022/04/11 07:00:22;;;;;;;3.80;1.80;;;;;;;-145.69;64.54;72289.97;5075097;28;20230;-75
2022/04/11 07:02:50;;;;;;;3.97;1.57;;;;;;;-145.69;65.41;72282.00;5075046;28;20539;-75
2022/04/11 07:05:16;;;;;;;6.80;1.70;;;;;;;-145.69;65.85;72272.06;5074779;28;20214;-76
2022/04/11 07:07:44;;;;;;;4.17;1.43;;;;;;;-145.69;65.11;72256.13;5074966;28;20199;-75
2022/04/11 07:10:13;;;;;;;2.07;1.63;;;;;;;-145.69;63.10;72254.16;5074715;28;20673;-75
2022/04/11 07:12:40;;;;;;;1.90;1.40;;;;;;;-145.69;64.91;72244.19;5074801;28;20203;-76
2022/04/11 07:15:10;;;;;;;4.33;1.50;;;;;;;-145.69;63.36;72242.22;5072338;28;20226;-76
2022/04/11 07:17:36;;;;;;;9.20;1.70;;;;;;;-145.69;61.94;72218.31;5072916;28;20670;-75
2022/04/11 07:20:04;;;;;;;6.43;1.60;;;;;;;-145.69;61.99;72210.38;5074334;28;20226;-75
2022/04/11 07:22:31;;;;;;;2.67;1.73;;;;;;;-145.69;62.48;72198.41;5074317;28;20203;-75
2022/04/11 07:25:00;;;;;;;3.00;1.70;;;;;;;-145.69;60.62;72198.41;5074561;28;20298;-76
2022/04/11 07:27:27;;;;;;;3.60;1.77;;;;;;;-145.69;63.49;72184.50;5074179;28;20205;-76
2022/04/11 07:29:53;;;;;;;5.90;1.80;;;;;;;-145.69;62.19;72184.50;5074574;28;20612;-75
2022/04/11 07:32:23;;;;;;;4.03;1.70;;;;;;;-145.69;59.18;72160.59;5074156;28;20226;-76
2022/04/11 07:34:49;;;;;;;3.07;1.60;;;;;;;-145.69;59.76;72160.59;5074144;28;20195;-75
2022/04/11 07:37:15;;;;;;;5.77;1.70;;;;;;;-145.69;61.37;72130.75;5073720;28;20229;-76
2022/04/11 07:39:42;;;;;;;1.30;1.20;;;;;;;-145.69;58.98;72136.72;5074180;28;20203;-75
2022/04/11 07:42:10;;;;;;;3.30;1.70;;;;;;;-145.69;62.01;72118.81;5073803;28;20680;-74
2022/04/11 07:44:36;;;;;;;4.20;1.60;;;;;;;-145.69;59.45;72104.88;5074176;28;20202;-76
2022/04/11 07:47:03;;;;;;;4.37;1.70;;;;;;;-145.69;57.38;72124.78;5074034;28;20209;-74
2022/04/11 07:49:32;;;;;;;2.90;1.50;;;;;;;-145.69;56.63;72114.81;5073624;28;20199;-74
2022/04/11 07:52:02;;;;;;;2.73;1.57;;;;;;;-145.69;58.11;72096.91;5073509;28;20264;-74
2022/04/11 07:54:28;;;;;;;2.23;1.60;;;;;;;-145.69;59.16;72079.00;5073595;28;20224;-74
2022/04/11 07:56:58;;;;;;;6.37;1.23;;;;;;;-145.69;56.06;72077.00;5073091;28;20199;-74
2022/04/11 07:59:25;;;;;;;1.57;1.30;;;;;;;-145.69;57.78;72081.00;5073662;28;20661;-74
2022/04/11 08:01:52;;;;;;;2.73;1.37;;;;;;;-145.69;57.68;72082.97;5073087;28;20609;-74
2022/04/11 08:04:19;;;;;;;2.63;1.10;;;;;;;-145.69;55.52;72067.06;5072873;28;20210;-74
2022/04/11 08:06:49;;;;;;;1.73;1.43;;;;;;;-145.69;56.47;72041.19;5060600;28;20233;-74
2022/04/11 08:09:16;;;;;;;2.97;1.20;;;;;;;-145.69;53.76;72047.16;5073134;28;20210;-74
2022/04/11 08:11:42;;;;;;;6.97;1.60;;;;;;;-145.69;54.62;72043.19;5073271;28;20202;-74
2022/04/11 08:14:09;;;;;;;4.30;1.40;;;;;;;-145.69;55.49;72037.22;5073031;28;20584;-76
2022/04/11 08:16:40;;;;;;;3.80;1.40;;;;;;;-145.69;51.88;72061.09;5073088;28;20294;-75
2022/04/11 08:19:06;;;;;;;2.27;1.40;;;;;;;-145.69;55.33;72043.19;5073286;28;20206;-75
2022/04/11 08:21:38;;;;;;;3.53;1.50;;;;;;;-145.69;52.05;72041.19;5072822;28;20230;-76
2022/04/11 08:24:05;;;;;;;3.33;1.80;;;;;;;-145.69;59.18;71991.44;5073634;28;20206;-75
2022/04/11 08:26:34;;;;;;;2.30;1.37;;;;;;;-145.69;51.26;71991.44;5073231;28;20202;-76
2022/04/11 08:29:02;;;;;;;2.90;1.30;;;;;;;-145.69;50.72;71989.44;5073088;28;20205;-75
2022/04/11 08:31:28;;;;;;;2.17;1.10;;;;;;;-145.69;51.25;71987.47;5073083;28;20203;-75
2022/04/11 08:33:56;;;;;;;2.63;1.57;;;;;;;-145.69;50.99;71991.44;5073192;28;20252;-74
2022/04/11 08:36:24;;;;;;;2.20;1.40;;;;;;;-145.69;50.62;71991.44;5073060;28;20203;-75
2022/04/11 08:38:52;;;;;;;2.57;1.10;;;;;;;-145.69;51.86;71951.63;5072834;28;20289;-75
2022/04/11 08:41:24;;;;;;;1.63;1.10;;;;;;;-145.69;48.48;71957.59;5072862;28;20230;-75
2022/04/11 08:43:53;;;;;;;2.17;1.03;;;;;;;-145.69;46.57;71931.72;5073107;28;20202;-76
2022/04/11 08:46:30;;;;;;;2.90;1.20;;;;;;;-145.69;49.23;71925.75;5073021;28;20202;-75
2022/04/11 08:49:00;;;;;;;7.77;1.30;;;;;;;-145.69;50.87;71899.88;5072015;28;20216;-75
2022/04/11 08:51:27;;;;;;;2.80;1.23;;;;;;;-145.69;52.63;71880.00;5075276;28;20624;-75
2022/04/11 08:53:53;;;;;;;2.80;1.20;;;;;;;-145.69;51.78;71850.13;5072619;28;20605;-76
2022/04/11 08:56:21;;;;;;;2.23;1.10;;;;;;;-145.69;46.87;71838.19;5072849;28;20565;-75
2022/04/11 08:58:48;;;;;;;3.17;1.13;;;;;;;-145.69;50.72;71840.19;5072748;28;20201;-75
2022/04/11 09:01:14;;;;;;;2.20;1.13;;;;;;;-145.69;46.84;71856.09;5072588;28;20585;-75
2022/04/11 09:03:42;;;;;;;2.23;1.30;;;;;;;-145.69;51.68;71826.25;5073035;28;20256;-75
2022/04/11 09:06:14;;;;;;;3.17;1.10;;;;;;;-145.69;44.92;71848.16;5072600;28;20210;-75
2022/04/11 09:08:43;;;;;;;2.47;0.90;;;;;;;-145.69;46.60;71848.16;5072894;28;20203;-75
2022/04/11 09:11:11;;;;;;;4.83;1.10;;;;;;;-145.69;46.08;71848.16;5076892;28;20595;-76
2022/04/11 09:13:48;;;;;;;2.23;1.17;;;;;;;-145.69;45.29;71864.06;5076775;28;20210;-75
2022/04/11 09:16:15;;;;;;;2.60;0.90;;;;;;;-145.69;48.24;71842.19;5075469;28;20507;-75
2022/04/11 09:18:49;;;;;;;1.00;0.83;;;;;;;-145.69;44.62;71832.22;5076793;28;20441;-75
2022/04/11 09:21:18;;;;;;;2.97;0.90;;;;;;;-145.69;47.45;71818.31;5076353;28;20237;-76
2022/04/11 09:23:45;;;;;;;1.77;0.80;;;;;;;-145.69;45.46;71818.31;5076412;28;20198;-75
2022/04/11 09:26:16;;;;;;;3.17;1.43;;;;;;;-145.69;45.62;71828.25;5076409;28;20203;-75
2022/04/11 09:28:43;;;;;;;2.70;0.90;;;;;;;-145.69;45.12;71822.28;5076827;28;20202;-76
2022/04/11 09:31:09;;;;;;;1.00;0.80;;;;;;;-145.69;52.99;71784.47;5076301;28;20198;-75
2022/04/11 09:33:38;;;;;;;1.80;0.87;;;;;;;-145.69;45.40;71788.44;5076184;28;20211;-75
2022/04/11 09:36:06;;;;;;;1.50;0.80;;;;;;;-145.69;44.98;71792.44;5076247;28;20202;-76
2022/04/11 09:38:40;;;;;;;2.23;1.10;;;;;;;-145.69;44.50;71790.44;5076122;28;20553;-75
2022/04/11 09:41:07;;;;;;;5.97;1.10;;;;;;;-145.69;48.84;71772.53;5076391;28;20237;-75
2022/04/11 09:43:34;;;;;;;1.30;1.00;;;;;;;-145.69;44.97;71756.59;5076084;28;20230;-75
2022/04/11 09:46:07;;;;;;;3.07;1.23;;;;;;;-145.69;45.63;71746.66;5076231;28;20206;-75
2022/04/11 09:48:35;;;;;;;1.13;0.97;;;;;;;-145.69;44.55;71748.66;5076182;28;20231;-75
2022/04/11 09:51:02;;;;;;;1.30;1.07;;;;;;;-145.69;45.60;71716.81;5075956;28;20264;-76
2022/04/11 09:53:32;;;;;;;1.47;0.80;;;;;;;-145.69;41.77;71744.66;5076151;28;20234;-75
2022/04/11 09:56:03;;;;;;;4.63;1.00;;;;;;;-145.69;40.57;71756.59;5074805;28;20206;-75
2022/04/11 09:58:31;;;;;;;1.93;1.00;;;;;;;-145.69;43.27;71710.84;5058243;28;20688;-74
2022/04/11 10:00:58;;;;;;;4.00;1.10;;;;;;;-145.69;46.74;71673.03;5055830;28;20223;-75
2022/04/11 10:03:27;;;;;;;1.63;1.00;;;;;;;-145.69;44.48;71692.94;5063195;28;20195;-75
2022/04/11 10:05:54;;;;;;;1.90;0.93;;;;;;;-145.69;45.35;71653.13;5075725;28;20260;-74
2022/04/11 10:08:24;;;;;;;2.40;1.30;;;;;;;-145.69;43.54;71643.19;5075878;28;20244;-75
2022/04/11 10:10:53;;;;;;;2.17;0.97;;;;;;;-145.69;44.11;71629.25;5075488;28;20202;-75
2022/04/11 10:13:21;;;;;;;1.43;1.13;;;;;;;-145.69;42.66;71641.19;5075482;28;20657;-74
2022/04/11 10:15:49;;;;;;;1.07;0.90;;;;;;;-145.69;41.13;71637.19;5075486;28;20238;-75
2022/04/11 10:18:21;;;;;;;2.03;0.80;;;;;;;-145.69;37.83;71617.31;5075261;28;20195;-74
2022/04/11 10:20:51;;;;;;;0.70;0.70;;;;;;;-145.69;43.41;71603.38;5075373;28;20277;-74
2022/04/11 10:23:41;;;;;;;0.87;0.80;;;;;;;-145.69;47.42;71573.53;5075541;28;20206;-74
2022/04/11 10:26:14;;;;;;;2.83;1.10;;;;;;;-145.69;43.06;71563.56;5075492;28;20198;-74
2022/04/11 10:28:48;;;;;;;1.03;0.93;;;;;;;-145.69;41.90;71573.53;5075269;28;20198;-74
2022/04/11 10:31:19;;;;;;;1.93;1.00;;;;;;;-145.69;42.00;71561.59;5075361;28;20199;-75
2022/04/11 10:33:49;;;;;;;1.70;1.00;;;;;;;-145.69;39.52;71555.63;5075442;28;20290;-74
2022/04/11 10:36:29;;;;;;;2.50;1.23;;;;;;;-145.69;41.68;71507.84;5075389;28;20205;-74
2022/04/11 10:39:29;;;;;;;1.33;0.87;;;;;;;-145.69;43.64;71480.00;5074811;28;20267;-75
2022/04/11 10:42:22;;;;;;;4.13;1.23;;;;;;;-145.69;36.81;71482.00;5074681;28;20693;-74
2022/04/11 10:44:54;;;;;;;2.83;1.20;;;;;;;-145.69;41.52;71509.84;5075024;28;20234;-75
2022/04/11 10:47:48;;;;;;;1.87;1.03;;;;;;;-145.69;40.37;71434.22;5074908;28;20750;-75
2022/04/11 10:50:42;;;;;;;2.33;1.10;;;;;;;-145.69;39.35;71418.31;5075132;28;20198;-74
2022/04/11 10:53:15;;;;;;;4.50;0.90;;;;;;;-145.69;37.47;71454.13;5075055;28;20194;-74
2022/04/11 10:56:05;;;;;;;1.20;0.80;;;;;;;-145.69;37.90;71476.03;5074524;28;20202;-75
2022/04/11 10:58:48;;;;;;;2.47;1.17;;;;;;;-145.69;40.44;71446.16;5075015;28;20207;-75
2022/04/11 11:01:58;;;;;;;4.00;1.30;;;;;;;-145.69;37.38;71434.22;5073406;28;20482;-75
2022/04/11 11:04:30;;;;;;;2.58;1.00;;;;;;;-145.69;36.86;71418.31;5074649;28;20195;-75
2022/04/11 11:07:26;;;;;;;2.13;1.00;;;;;;;-145.69;36.45;71398.41;5074805;28;20257;-75
2022/04/11 11:10:01;;;;;;;1.43;0.90;;;;;;;-145.69;36.73;71418.31;5074277;28;20680;-75
2022/04/11 11:12:30;;;;;;;2.37;1.20;;;;;;;-145.69;38.55;71390.47;5074515;28;20202;-75
2022/04/11 11:15:27;;;;;;;1.73;1.17;;;;;;;-145.69;37.60;71412.34;5074205;28;20237;-75
2022/04/11 11:18:05;;;;;;;2.00;1.10;;;;;;;-145.69;38.01;71398.41;5074387;28;20234;-75
2022/04/11 11:20:48;;;;;;;2.23;1.10;;;;;;;-145.69;38.61;71370.56;5074083;28;20195;-75